sensor_id;sensor_type;location;lat;lon;timestamp;P1;durP1;ratioP1;P2;durP2;ratioP2
71878;SDS011;59755;43.834;4.364;2022-12-07T00:00:27;15.50;;;8.48;;
71878;SDS011;59755;43.834;4.364;2022-12-07T00:02:53;16.45;;;8.60;;
71878;SDS011;59755;43.834;4.364;2022-12-07T00:05:19;14.02;;;8.13;;
71878;SDS011;59755;43.834;4.364;2022-12-07T00:07:44;16.15;;;8.88;;
71878;SDS011;59755;43.834;4.364;2022-12-07T00:10:10;13.30;;;7.80;;
71878;SDS011;59755;43.834;4.364;2022-12-07T00:12:36;15.68;;;8.57;;
71878;SDS011;59755;43.834;4.364;2022-12-07T00:15:02;14.02;;;8.00;;
71878;SDS011;59755;43.834;4.364;2022-12-07T00:17:28;14.68;;;8.45;;
71878;SDS011;59755;43.834;4.364;2022-12-07T00:19:53;15.75;;;8.65;;
71878;SDS011;59755;43.834;4.364;2022-12-07T00:22:19;14.65;;;8.50;;
71878;SDS011;59755;43.834;4.364;2022-12-07T00:24:45;14.15;;;8.30;;
71878;SDS011;59755;43.834;4.364;2022-12-07T00:27:10;16.20;;;8.20;;
71878;SDS011;59755;43.834;4.364;2022-12-07T00:29:36;13.82;;;8.10;;
71878;SDS011;59755;43.834;4.364;2022-12-07T00:32:02;13.35;;;7.60;;
71878;SDS011;59755;43.834;4.364;2022-12-07T00:34:28;14.23;;;7.55;;
71878;SDS011;59755;43.834;4.364;2022-12-07T00:36:54;14.18;;;7.95;;
71878;SDS011;59755;43.834;4.364;2022-12-07T00:39:20;13.85;;;8.40;;
71878;SDS011;59755;43.834;4.364;2022-12-07T00:41:45;15.15;;;8.65;;
71878;SDS011;59755;43.834;4.364;2022-12-07T00:44:11;13.10;;;8.02;;
71878;SDS011;59755;43.834;4.364;2022-12-07T00:46:37;14.70;;;8.65;;
71878;SDS011;59755;43.834;4.364;2022-12-07T00:49:03;13.90;;;8.23;;
71878;SDS011;59755;43.834;4.364;2022-12-07T00:51:28;13.57;;;7.43;;
71878;SDS011;59755;43.834;4.364;2022-12-07T00:53:54;13.82;;;7.07;;
71878;SDS011;59755;43.834;4.364;2022-12-07T00:56:24;13.30;;;7.30;;
71878;SDS011;59755;43.834;4.364;2022-12-07T01:01:28;12.63;;;7.20;;
71878;SDS011;59755;43.834;4.364;2022-12-07T01:03:56;13.35;;;7.25;;
71878;SDS011;59755;43.834;4.364;2022-12-07T01:06:22;13.73;;;8.88;;
71878;SDS011;59755;43.834;4.364;2022-12-07T01:08:49;14.07;;;7.95;;
71878;SDS011;59755;43.834;4.364;2022-12-07T01:11:16;14.05;;;7.88;;
71878;SDS011;59755;43.834;4.364;2022-12-07T01:13:43;13.73;;;7.25;;
71878;SDS011;59755;43.834;4.364;2022-12-07T01:16:10;13.88;;;7.90;;
71878;SDS011;59755;43.834;4.364;2022-12-07T01:18:38;12.57;;;7.20;;
71878;SDS011;59755;43.834;4.364;2022-12-07T01:21:09;15.30;;;8.68;;
71878;SDS011;59755;43.834;4.364;2022-12-07T01:23:37;12.15;;;7.57;;
71878;SDS011;59755;43.834;4.364;2022-12-07T01:26:05;13.07;;;7.00;;
71878;SDS011;59755;43.834;4.364;2022-12-07T01:28:33;13.65;;;7.32;;
71878;SDS011;59755;43.834;4.364;2022-12-07T01:31:09;12.10;;;7.03;;
71878;SDS011;59755;43.834;4.364;2022-12-07T01:33:37;13.15;;;7.32;;
71878;SDS011;59755;43.834;4.364;2022-12-07T01:36:17;12.30;;;7.30;;
71878;SDS011;59755;43.834;4.364;2022-12-07T01:38:45;14.00;;;7.15;;
71878;SDS011;59755;43.834;4.364;2022-12-07T01:41:12;11.10;;;6.93;;
71878;SDS011;59755;43.834;4.364;2022-12-07T01:46:32;13.20;;;7.55;;
71878;SDS011;59755;43.834;4.364;2022-12-07T01:48:58;11.93;;;6.75;;
71878;SDS011;59755;43.834;4.364;2022-12-07T01:51:24;12.57;;;6.35;;
71878;SDS011;59755;43.834;4.364;2022-12-07T01:53:51;11.52;;;6.70;;
71878;SDS011;59755;43.834;4.364;2022-12-07T01:56:19;12.27;;;6.35;;
71878;SDS011;59755;43.834;4.364;2022-12-07T01:58:47;12.40;;;7.30;;
71878;SDS011;59755;43.834;4.364;2022-12-07T02:01:14;10.15;;;5.88;;
71878;SDS011;59755;43.834;4.364;2022-12-07T02:03:41;11.55;;;6.63;;
71878;SDS011;59755;43.834;4.364;2022-12-07T02:06:09;10.93;;;6.05;;
71878;SDS011;59755;43.834;4.364;2022-12-07T02:08:37;12.88;;;7.25;;
71878;SDS011;59755;43.834;4.364;2022-12-07T02:11:03;10.60;;;5.70;;
71878;SDS011;59755;43.834;4.364;2022-12-07T02:13:32;11.18;;;6.47;;
71878;SDS011;59755;43.834;4.364;2022-12-07T02:21:59;10.05;;;5.30;;
71878;SDS011;59755;43.834;4.364;2022-12-07T02:29:53;11.38;;;5.88;;
71878;SDS011;59755;43.834;4.364;2022-12-07T02:32:25;10.75;;;6.20;;
71878;SDS011;59755;43.834;4.364;2022-12-07T02:35:21;11.13;;;6.07;;
71878;SDS011;59755;43.834;4.364;2022-12-07T02:38:14;10.13;;;5.57;;
71878;SDS011;59755;43.834;4.364;2022-12-07T02:40:54;11.70;;;5.60;;
71878;SDS011;59755;43.834;4.364;2022-12-07T02:43:32;11.60;;;6.40;;
71878;SDS011;59755;43.834;4.364;2022-12-07T02:46:02;11.23;;;6.30;;
71878;SDS011;59755;43.834;4.364;2022-12-07T02:48:32;10.23;;;6.25;;
71878;SDS011;59755;43.834;4.364;2022-12-07T02:51:00;10.68;;;5.60;;
71878;SDS011;59755;43.834;4.364;2022-12-07T02:53:36;10.43;;;6.07;;
71878;SDS011;59755;43.834;4.364;2022-12-07T02:56:13;11.32;;;5.88;;
71878;SDS011;59755;43.834;4.364;2022-12-07T03:10:07;10.43;;;5.90;;
71878;SDS011;59755;43.834;4.364;2022-12-07T03:18:24;10.00;;;5.78;;
71878;SDS011;59755;43.834;4.364;2022-12-07T03:20:53;11.27;;;5.72;;
71878;SDS011;59755;43.834;4.364;2022-12-07T03:23:23;9.93;;;5.40;;
71878;SDS011;59755;43.834;4.364;2022-12-07T03:25:52;11.25;;;6.35;;
71878;SDS011;59755;43.834;4.364;2022-12-07T03:28:22;10.48;;;5.95;;
71878;SDS011;59755;43.834;4.364;2022-12-07T03:30:56;11.07;;;6.38;;
71878;SDS011;59755;43.834;4.364;2022-12-07T03:33:24;11.60;;;6.22;;
71878;SDS011;59755;43.834;4.364;2022-12-07T03:35:59;10.75;;;6.00;;
71878;SDS011;59755;43.834;4.364;2022-12-07T03:38:31;10.43;;;5.70;;
71878;SDS011;59755;43.834;4.364;2022-12-07T03:41:16;10.93;;;5.75;;
71878;SDS011;59755;43.834;4.364;2022-12-07T03:43:45;11.85;;;6.43;;
71878;SDS011;59755;43.834;4.364;2022-12-07T03:46:19;9.65;;;5.63;;
71878;SDS011;59755;43.834;4.364;2022-12-07T03:48:53;10.40;;;6.05;;
71878;SDS011;59755;43.834;4.364;2022-12-07T03:57:14;10.68;;;5.32;;
71878;SDS011;59755;43.834;4.364;2022-12-07T03:59:42;11.10;;;6.45;;
71878;SDS011;59755;43.834;4.364;2022-12-07T04:02:08;11.63;;;6.28;;
71878;SDS011;59755;43.834;4.364;2022-12-07T04:04:37;10.75;;;6.03;;
71878;SDS011;59755;43.834;4.364;2022-12-07T04:07:04;10.50;;;5.95;;
71878;SDS011;59755;43.834;4.364;2022-12-07T04:09:30;9.52;;;5.63;;
71878;SDS011;59755;43.834;4.364;2022-12-07T04:11:55;9.63;;;5.57;;
71878;SDS011;59755;43.834;4.364;2022-12-07T04:14:21;10.95;;;5.78;;
71878;SDS011;59755;43.834;4.364;2022-12-07T04:16:55;10.10;;;5.57;;
71878;SDS011;59755;43.834;4.364;2022-12-07T04:19:23;9.23;;;5.50;;
71878;SDS011;59755;43.834;4.364;2022-12-07T04:21:50;10.50;;;5.53;;
71878;SDS011;59755;43.834;4.364;2022-12-07T04:24:16;9.00;;;5.40;;
71878;SDS011;59755;43.834;4.364;2022-12-07T04:26:42;9.90;;;5.35;;
71878;SDS011;59755;43.834;4.364;2022-12-07T04:29:09;8.65;;;5.00;;
71878;SDS011;59755;43.834;4.364;2022-12-07T04:31:35;8.82;;;5.30;;
71878;SDS011;59755;43.834;4.364;2022-12-07T04:34:02;10.40;;;5.47;;
71878;SDS011;59755;43.834;4.364;2022-12-07T04:36:28;9.23;;;5.28;;
71878;SDS011;59755;43.834;4.364;2022-12-07T04:38:54;12.15;;;6.03;;
71878;SDS011;59755;43.834;4.364;2022-12-07T04:41:20;9.20;;;4.90;;
71878;SDS011;59755;43.834;4.364;2022-12-07T04:43:55;10.70;;;5.57;;
71878;SDS011;59755;43.834;4.364;2022-12-07T04:46:22;10.38;;;6.22;;
71878;SDS011;59755;43.834;4.364;2022-12-07T04:48:49;8.25;;;5.00;;
71878;SDS011;59755;43.834;4.364;2022-12-07T04:51:18;10.18;;;4.85;;
71878;SDS011;59755;43.834;4.364;2022-12-07T04:53:46;11.13;;;5.55;;
71878;SDS011;59755;43.834;4.364;2022-12-07T04:56:12;10.38;;;5.65;;
71878;SDS011;59755;43.834;4.364;2022-12-07T04:58:38;10.10;;;5.18;;
71878;SDS011;59755;43.834;4.364;2022-12-07T05:01:04;9.13;;;5.70;;
71878;SDS011;59755;43.834;4.364;2022-12-07T05:03:30;9.43;;;5.05;;
71878;SDS011;59755;43.834;4.364;2022-12-07T05:05:55;10.52;;;5.65;;
71878;SDS011;59755;43.834;4.364;2022-12-07T05:08:21;10.60;;;5.95;;
71878;SDS011;59755;43.834;4.364;2022-12-07T05:10:48;10.65;;;5.47;;
71878;SDS011;59755;43.834;4.364;2022-12-07T05:13:14;9.82;;;5.20;;
71878;SDS011;59755;43.834;4.364;2022-12-07T05:15:40;10.90;;;5.70;;
71878;SDS011;59755;43.834;4.364;2022-12-07T05:18:08;12.13;;;6.10;;
71878;SDS011;59755;43.834;4.364;2022-12-07T05:20:37;13.02;;;6.18;;
71878;SDS011;59755;43.834;4.364;2022-12-07T05:23:03;10.50;;;5.38;;
71878;SDS011;59755;43.834;4.364;2022-12-07T05:25:29;11.98;;;6.03;;
71878;SDS011;59755;43.834;4.364;2022-12-07T05:27:55;10.68;;;5.47;;
71878;SDS011;59755;43.834;4.364;2022-12-07T05:30:21;11.23;;;6.10;;
71878;SDS011;59755;43.834;4.364;2022-12-07T05:32:48;11.77;;;5.50;;
71878;SDS011;59755;43.834;4.364;2022-12-07T05:35:14;9.38;;;5.00;;
71878;SDS011;59755;43.834;4.364;2022-12-07T05:37:40;9.52;;;5.60;;
71878;SDS011;59755;43.834;4.364;2022-12-07T05:40:05;12.38;;;5.85;;
71878;SDS011;59755;43.834;4.364;2022-12-07T05:42:32;10.70;;;5.55;;
71878;SDS011;59755;43.834;4.364;2022-12-07T05:44:58;11.68;;;5.80;;
71878;SDS011;59755;43.834;4.364;2022-12-07T05:47:23;10.60;;;5.10;;
71878;SDS011;59755;43.834;4.364;2022-12-07T05:49:49;10.32;;;5.75;;
71878;SDS011;59755;43.834;4.364;2022-12-07T05:52:15;9.48;;;5.20;;
71878;SDS011;59755;43.834;4.364;2022-12-07T05:54:41;10.18;;;5.20;;
71878;SDS011;59755;43.834;4.364;2022-12-07T05:57:06;10.13;;;5.68;;
71878;SDS011;59755;43.834;4.364;2022-12-07T05:59:32;11.30;;;5.55;;
71878;SDS011;59755;43.834;4.364;2022-12-07T06:01:59;9.75;;;5.00;;
71878;SDS011;59755;43.834;4.364;2022-12-07T06:04:34;10.02;;;5.68;;
71878;SDS011;59755;43.834;4.364;2022-12-07T06:07:02;8.85;;;5.05;;
71878;SDS011;59755;43.834;4.364;2022-12-07T06:09:28;11.15;;;4.95;;
71878;SDS011;59755;43.834;4.364;2022-12-07T06:11:54;10.60;;;5.70;;
71878;SDS011;59755;43.834;4.364;2022-12-07T06:14:40;10.95;;;5.30;;
71878;SDS011;59755;43.834;4.364;2022-12-07T06:17:06;10.40;;;5.25;;
71878;SDS011;59755;43.834;4.364;2022-12-07T06:19:32;10.63;;;5.65;;
71878;SDS011;59755;43.834;4.364;2022-12-07T06:21:58;9.75;;;5.40;;
71878;SDS011;59755;43.834;4.364;2022-12-07T06:24:24;9.85;;;5.18;;
71878;SDS011;59755;43.834;4.364;2022-12-07T06:26:50;9.93;;;5.55;;
71878;SDS011;59755;43.834;4.364;2022-12-07T06:29:16;12.18;;;5.63;;
71878;SDS011;59755;43.834;4.364;2022-12-07T06:31:43;10.55;;;5.60;;
71878;SDS011;59755;43.834;4.364;2022-12-07T06:34:10;9.50;;;5.63;;
71878;SDS011;59755;43.834;4.364;2022-12-07T06:36:38;10.55;;;5.55;;
71878;SDS011;59755;43.834;4.364;2022-12-07T06:39:03;9.15;;;5.07;;
71878;SDS011;59755;43.834;4.364;2022-12-07T06:41:30;9.80;;;5.30;;
71878;SDS011;59755;43.834;4.364;2022-12-07T06:43:56;11.38;;;5.80;;
71878;SDS011;59755;43.834;4.364;2022-12-07T06:46:22;14.50;;;5.90;;
71878;SDS011;59755;43.834;4.364;2022-12-07T06:48:49;13.63;;;6.15;;
71878;SDS011;59755;43.834;4.364;2022-12-07T06:51:15;15.60;;;5.70;;
71878;SDS011;59755;43.834;4.364;2022-12-07T06:53:41;11.23;;;5.47;;
71878;SDS011;59755;43.834;4.364;2022-12-07T06:56:07;10.55;;;5.57;;
71878;SDS011;59755;43.834;4.364;2022-12-07T06:58:33;11.55;;;5.90;;
71878;SDS011;59755;43.834;4.364;2022-12-07T07:00:58;9.82;;;5.20;;
71878;SDS011;59755;43.834;4.364;2022-12-07T07:03:24;11.20;;;6.32;;
71878;SDS011;59755;43.834;4.364;2022-12-07T07:05:50;10.32;;;5.90;;
71878;SDS011;59755;43.834;4.364;2022-12-07T07:08:15;10.40;;;5.18;;
71878;SDS011;59755;43.834;4.364;2022-12-07T07:10:41;11.85;;;5.78;;
71878;SDS011;59755;43.834;4.364;2022-12-07T07:13:07;11.43;;;6.00;;
71878;SDS011;59755;43.834;4.364;2022-12-07T07:15:34;10.35;;;5.25;;
71878;SDS011;59755;43.834;4.364;2022-12-07T07:18:00;9.82;;;5.80;;
71878;SDS011;59755;43.834;4.364;2022-12-07T07:20:26;9.80;;;5.63;;
71878;SDS011;59755;43.834;4.364;2022-12-07T07:22:53;10.65;;;6.70;;
71878;SDS011;59755;43.834;4.364;2022-12-07T07:25:19;9.95;;;5.43;;
71878;SDS011;59755;43.834;4.364;2022-12-07T07:27:45;10.15;;;5.32;;
71878;SDS011;59755;43.834;4.364;2022-12-07T07:30:11;9.80;;;5.68;;
71878;SDS011;59755;43.834;4.364;2022-12-07T07:32:37;11.50;;;5.85;;
71878;SDS011;59755;43.834;4.364;2022-12-07T07:35:03;10.50;;;5.55;;
71878;SDS011;59755;43.834;4.364;2022-12-07T07:37:29;10.85;;;5.80;;
71878;SDS011;59755;43.834;4.364;2022-12-07T07:39:55;11.45;;;5.63;;
71878;SDS011;59755;43.834;4.364;2022-12-07T07:42:20;11.05;;;5.57;;
71878;SDS011;59755;43.834;4.364;2022-12-07T07:44:46;12.40;;;5.65;;
71878;SDS011;59755;43.834;4.364;2022-12-07T07:47:12;12.20;;;6.13;;
71878;SDS011;59755;43.834;4.364;2022-12-07T07:49:37;11.45;;;5.45;;
71878;SDS011;59755;43.834;4.364;2022-12-07T07:52:04;13.20;;;6.00;;
71878;SDS011;59755;43.834;4.364;2022-12-07T07:54:31;11.30;;;6.00;;
71878;SDS011;59755;43.834;4.364;2022-12-07T07:56:57;11.27;;;5.72;;
71878;SDS011;59755;43.834;4.364;2022-12-07T07:59:22;10.23;;;5.32;;
71878;SDS011;59755;43.834;4.364;2022-12-07T08:01:49;11.77;;;5.88;;
71878;SDS011;59755;43.834;4.364;2022-12-07T08:04:15;10.63;;;5.82;;
71878;SDS011;59755;43.834;4.364;2022-12-07T08:06:41;12.65;;;6.07;;
71878;SDS011;59755;43.834;4.364;2022-12-07T08:09:07;10.30;;;5.47;;
71878;SDS011;59755;43.834;4.364;2022-12-07T08:11:33;9.70;;;5.43;;
71878;SDS011;59755;43.834;4.364;2022-12-07T08:13:59;10.05;;;5.20;;
71878;SDS011;59755;43.834;4.364;2022-12-07T08:16:25;10.77;;;5.40;;
71878;SDS011;59755;43.834;4.364;2022-12-07T08:18:51;10.00;;;5.68;;
71878;SDS011;59755;43.834;4.364;2022-12-07T08:21:17;9.82;;;5.35;;
71878;SDS011;59755;43.834;4.364;2022-12-07T08:23:43;10.88;;;5.28;;
71878;SDS011;59755;43.834;4.364;2022-12-07T08:26:13;10.05;;;5.38;;
71878;SDS011;59755;43.834;4.364;2022-12-07T08:28:41;10.68;;;5.68;;
71878;SDS011;59755;43.834;4.364;2022-12-07T08:31:15;9.82;;;4.97;;
71878;SDS011;59755;43.834;4.364;2022-12-07T08:33:43;9.55;;;4.75;;
71878;SDS011;59755;43.834;4.364;2022-12-07T08:36:11;9.35;;;5.07;;
71878;SDS011;59755;43.834;4.364;2022-12-07T08:38:38;11.30;;;5.03;;
71878;SDS011;59755;43.834;4.364;2022-12-07T08:41:05;10.07;;;4.60;;
71878;SDS011;59755;43.834;4.364;2022-12-07T08:43:31;10.85;;;5.20;;
71878;SDS011;59755;43.834;4.364;2022-12-07T08:46:03;8.70;;;4.90;;
71878;SDS011;59755;43.834;4.364;2022-12-07T08:49:02;8.90;;;4.80;;
71878;SDS011;59755;43.834;4.364;2022-12-07T08:51:31;8.52;;;4.22;;
71878;SDS011;59755;43.834;4.364;2022-12-07T08:53:58;10.35;;;5.25;;
71878;SDS011;59755;43.834;4.364;2022-12-07T08:56:26;9.90;;;4.93;;
71878;SDS011;59755;43.834;4.364;2022-12-07T08:58:52;12.45;;;5.10;;
71878;SDS011;59755;43.834;4.364;2022-12-07T09:01:18;9.70;;;4.88;;
71878;SDS011;59755;43.834;4.364;2022-12-07T09:03:44;10.50;;;5.00;;
71878;SDS011;59755;43.834;4.364;2022-12-07T09:06:09;9.30;;;4.80;;
71878;SDS011;59755;43.834;4.364;2022-12-07T09:08:36;8.63;;;4.47;;
71878;SDS011;59755;43.834;4.364;2022-12-07T09:11:05;8.00;;;4.40;;
71878;SDS011;59755;43.834;4.364;2022-12-07T09:13:31;7.75;;;3.92;;
71878;SDS011;59755;43.834;4.364;2022-12-07T09:15:56;9.57;;;4.93;;
71878;SDS011;59755;43.834;4.364;2022-12-07T09:18:22;8.13;;;4.10;;
71878;SDS011;59755;43.834;4.364;2022-12-07T09:20:49;7.50;;;3.78;;
71878;SDS011;59755;43.834;4.364;2022-12-07T09:23:15;7.75;;;3.90;;
71878;SDS011;59755;43.834;4.364;2022-12-07T09:25:40;7.65;;;3.80;;
71878;SDS011;59755;43.834;4.364;2022-12-07T09:28:06;8.15;;;4.00;;
71878;SDS011;59755;43.834;4.364;2022-12-07T09:30:32;7.65;;;3.47;;
71878;SDS011;59755;43.834;4.364;2022-12-07T09:32:58;7.65;;;4.03;;
71878;SDS011;59755;43.834;4.364;2022-12-07T09:35:24;7.78;;;3.90;;
71878;SDS011;59755;43.834;4.364;2022-12-07T09:37:50;7.15;;;3.55;;
71878;SDS011;59755;43.834;4.364;2022-12-07T09:40:16;7.45;;;3.10;;
71878;SDS011;59755;43.834;4.364;2022-12-07T09:42:44;6.43;;;3.05;;
71878;SDS011;59755;43.834;4.364;2022-12-07T09:45:21;7.35;;;3.35;;
71878;SDS011;59755;43.834;4.364;2022-12-07T09:47:50;7.57;;;3.10;;
71878;SDS011;59755;43.834;4.364;2022-12-07T09:50:18;6.20;;;2.60;;
71878;SDS011;59755;43.834;4.364;2022-12-07T09:52:46;6.22;;;2.67;;
71878;SDS011;59755;43.834;4.364;2022-12-07T09:55:14;6.78;;;2.92;;
71878;SDS011;59755;43.834;4.364;2022-12-07T09:57:44;6.22;;;2.72;;
71878;SDS011;59755;43.834;4.364;2022-12-07T10:00:13;7.38;;;2.90;;
71878;SDS011;59755;43.834;4.364;2022-12-07T10:02:46;6.57;;;2.58;;
71878;SDS011;59755;43.834;4.364;2022-12-07T10:05:16;7.05;;;2.38;;
71878;SDS011;59755;43.834;4.364;2022-12-07T10:07:45;5.53;;;2.53;;
71878;SDS011;59755;43.834;4.364;2022-12-07T10:10:29;5.38;;;2.40;;
71878;SDS011;59755;43.834;4.364;2022-12-07T10:13:04;6.03;;;2.50;;
71878;SDS011;59755;43.834;4.364;2022-12-07T10:21:02;5.05;;;2.40;;
71878;SDS011;59755;43.834;4.364;2022-12-07T10:23:39;6.47;;;2.45;;
71878;SDS011;59755;43.834;4.364;2022-12-07T10:26:40;5.88;;;2.70;;
71878;SDS011;59755;43.834;4.364;2022-12-07T10:29:28;7.78;;;2.65;;
71878;SDS011;59755;43.834;4.364;2022-12-07T10:34:51;7.78;;;2.80;;
71878;SDS011;59755;43.834;4.364;2022-12-07T10:37:45;5.97;;;2.80;;
71878;SDS011;59755;43.834;4.364;2022-12-07T10:43:03;6.10;;;2.83;;
71878;SDS011;59755;43.834;4.364;2022-12-07T11:01:48;6.88;;;2.95;;
71878;SDS011;59755;43.834;4.364;2022-12-07T11:04:45;6.95;;;2.70;;
71878;SDS011;59755;43.834;4.364;2022-12-07T11:07:34;7.38;;;2.70;;
71878;SDS011;59755;43.834;4.364;2022-12-07T11:19:26;6.93;;;3.08;;
71878;SDS011;59755;43.834;4.364;2022-12-07T11:21:59;7.00;;;2.75;;
71878;SDS011;59755;43.834;4.364;2022-12-07T11:27:37;6.95;;;2.70;;
71878;SDS011;59755;43.834;4.364;2022-12-07T11:30:29;5.88;;;2.47;;
71878;SDS011;59755;43.834;4.364;2022-12-07T11:33:19;6.18;;;2.25;;
71878;SDS011;59755;43.834;4.364;2022-12-07T11:38:54;5.43;;;2.30;;
71878;SDS011;59755;43.834;4.364;2022-12-07T11:41:23;5.47;;;2.17;;
71878;SDS011;59755;43.834;4.364;2022-12-07T11:43:56;5.05;;;1.90;;
71878;SDS011;59755;43.834;4.364;2022-12-07T11:46:25;4.90;;;1.92;;
71878;SDS011;59755;43.834;4.364;2022-12-07T11:55:24;5.00;;;1.95;;
71878;SDS011;59755;43.834;4.364;2022-12-07T12:03:33;6.10;;;1.80;;
71878;SDS011;59755;43.834;4.364;2022-12-07T12:06:02;4.57;;;1.90;;
71878;SDS011;59755;43.834;4.364;2022-12-07T12:08:34;5.40;;;2.00;;
71878;SDS011;59755;43.834;4.364;2022-12-07T12:11:19;5.05;;;1.98;;
71878;SDS011;59755;43.834;4.364;2022-12-07T12:17:00;4.60;;;1.80;;
71878;SDS011;59755;43.834;4.364;2022-12-07T12:20:03;5.25;;;1.95;;
71878;SDS011;59755;43.834;4.364;2022-12-07T12:22:24;4.82;;;1.88;;
71878;SDS011;59755;43.834;4.364;2022-12-07T12:25:04;5.25;;;2.00;;
71878;SDS011;59755;43.834;4.364;2022-12-07T12:27:35;5.80;;;2.00;;
71878;SDS011;59755;43.834;4.364;2022-12-07T12:30:04;4.95;;;2.13;;
71878;SDS011;59755;43.834;4.364;2022-12-07T12:40:52;4.88;;;1.88;;
71878;SDS011;59755;43.834;4.364;2022-12-07T12:51:41;4.50;;;1.83;;
71878;SDS011;59755;43.834;4.364;2022-12-07T13:01:49;4.88;;;1.90;;
71878;SDS011;59755;43.834;4.364;2022-12-07T13:04:18;4.30;;;1.77;;
71878;SDS011;59755;43.834;4.364;2022-12-07T13:06:49;5.00;;;2.03;;
71878;SDS011;59755;43.834;4.364;2022-12-07T13:09:49;4.60;;;1.65;;
71878;SDS011;59755;43.834;4.364;2022-12-07T13:12:13;4.45;;;1.50;;
71878;SDS011;59755;43.834;4.364;2022-12-07T13:14:57;5.35;;;1.63;;
71878;SDS011;59755;43.834;4.364;2022-12-07T13:20:02;5.65;;;1.85;;
71878;SDS011;59755;43.834;4.364;2022-12-07T13:24:59;4.20;;;1.50;;
71878;SDS011;59755;43.834;4.364;2022-12-07T13:27:33;4.47;;;1.70;;
71878;SDS011;59755;43.834;4.364;2022-12-07T13:30:04;5.85;;;1.85;;
71878;SDS011;59755;43.834;4.364;2022-12-07T13:32:40;5.30;;;1.80;;
71878;SDS011;59755;43.834;4.364;2022-12-07T13:37:58;5.38;;;2.00;;
71878;SDS011;59755;43.834;4.364;2022-12-07T13:40:26;4.85;;;1.80;;
71878;SDS011;59755;43.834;4.364;2022-12-07T13:43:02;5.82;;;2.13;;
71878;SDS011;59755;43.834;4.364;2022-12-07T13:45:30;6.03;;;2.30;;
71878;SDS011;59755;43.834;4.364;2022-12-07T13:50:48;4.80;;;1.83;;
71878;SDS011;59755;43.834;4.364;2022-12-07T13:53:19;4.88;;;1.90;;
71878;SDS011;59755;43.834;4.364;2022-12-07T13:55:45;6.63;;;1.98;;
71878;SDS011;59755;43.834;4.364;2022-12-07T13:58:12;6.47;;;2.10;;
71878;SDS011;59755;43.834;4.364;2022-12-07T14:00:39;6.05;;;1.95;;
71878;SDS011;59755;43.834;4.364;2022-12-07T14:05:37;4.85;;;1.83;;
71878;SDS011;59755;43.834;4.364;2022-12-07T14:10:36;5.90;;;2.20;;
71878;SDS011;59755;43.834;4.364;2022-12-07T14:13:29;5.38;;;2.00;;
71878;SDS011;59755;43.834;4.364;2022-12-07T14:15:59;5.00;;;2.00;;
71878;SDS011;59755;43.834;4.364;2022-12-07T14:21:13;5.07;;;2.25;;
71878;SDS011;59755;43.834;4.364;2022-12-07T14:23:39;5.38;;;2.00;;
71878;SDS011;59755;43.834;4.364;2022-12-07T14:26:13;5.15;;;2.00;;
71878;SDS011;59755;43.834;4.364;2022-12-07T14:28:40;6.22;;;2.40;;
71878;SDS011;59755;43.834;4.364;2022-12-07T14:31:17;5.00;;;2.10;;
71878;SDS011;59755;43.834;4.364;2022-12-07T14:33:46;5.97;;;2.58;;
71878;SDS011;59755;43.834;4.364;2022-12-07T14:36:12;6.00;;;2.30;;
71878;SDS011;59755;43.834;4.364;2022-12-07T14:38:39;6.43;;;2.55;;
71878;SDS011;59755;43.834;4.364;2022-12-07T14:41:12;6.25;;;2.60;;
71878;SDS011;59755;43.834;4.364;2022-12-07T14:43:58;5.63;;;2.47;;
71878;SDS011;59755;43.834;4.364;2022-12-07T14:46:25;6.20;;;2.92;;
71878;SDS011;59755;43.834;4.364;2022-12-07T14:48:50;6.40;;;2.67;;
71878;SDS011;59755;43.834;4.364;2022-12-07T14:51:16;5.22;;;2.42;;
71878;SDS011;59755;43.834;4.364;2022-12-07T14:53:49;6.32;;;2.70;;
71878;SDS011;59755;43.834;4.364;2022-12-07T14:56:17;6.18;;;2.95;;
71878;SDS011;59755;43.834;4.364;2022-12-07T14:58:43;6.13;;;3.03;;
71878;SDS011;59755;43.834;4.364;2022-12-07T15:01:09;6.20;;;3.25;;
71878;SDS011;59755;43.834;4.364;2022-12-07T15:03:34;8.10;;;3.30;;
71878;SDS011;59755;43.834;4.364;2022-12-07T15:06:05;6.30;;;3.45;;
71878;SDS011;59755;43.834;4.364;2022-12-07T15:08:31;7.93;;;3.30;;
71878;SDS011;59755;43.834;4.364;2022-12-07T15:10:57;6.70;;;3.58;;
71878;SDS011;59755;43.834;4.364;2022-12-07T15:13:23;8.10;;;3.67;;
71878;SDS011;59755;43.834;4.364;2022-12-07T15:16:09;6.10;;;3.50;;
71878;SDS011;59755;43.834;4.364;2022-12-07T15:18:37;7.13;;;3.22;;
71878;SDS011;59755;43.834;4.364;2022-12-07T15:21:03;8.02;;;3.80;;
71878;SDS011;59755;43.834;4.364;2022-12-07T15:23:29;8.52;;;3.40;;
71878;SDS011;59755;43.834;4.364;2022-12-07T15:25:56;8.10;;;3.78;;
71878;SDS011;59755;43.834;4.364;2022-12-07T15:28:21;7.78;;;3.47;;
71878;SDS011;59755;43.834;4.364;2022-12-07T15:30:47;7.45;;;3.45;;
71878;SDS011;59755;43.834;4.364;2022-12-07T15:33:13;8.57;;;3.83;;
71878;SDS011;59755;43.834;4.364;2022-12-07T15:35:43;8.30;;;3.80;;
71878;SDS011;59755;43.834;4.364;2022-12-07T15:38:09;8.52;;;3.65;;
71878;SDS011;59755;43.834;4.364;2022-12-07T15:40:36;9.32;;;3.90;;
71878;SDS011;59755;43.834;4.364;2022-12-07T15:43:02;7.60;;;3.75;;
71878;SDS011;59755;43.834;4.364;2022-12-07T15:45:28;7.80;;;3.75;;
71878;SDS011;59755;43.834;4.364;2022-12-07T15:47:54;7.70;;;3.78;;
71878;SDS011;59755;43.834;4.364;2022-12-07T15:50:20;8.65;;;4.28;;
71878;SDS011;59755;43.834;4.364;2022-12-07T15:52:47;8.93;;;4.10;;
71878;SDS011;59755;43.834;4.364;2022-12-07T15:55:13;9.20;;;4.30;;
71878;SDS011;59755;43.834;4.364;2022-12-07T15:57:38;8.40;;;4.43;;
71878;SDS011;59755;43.834;4.364;2022-12-07T16:00:06;9.35;;;4.80;;
71878;SDS011;59755;43.834;4.364;2022-12-07T16:02:33;8.52;;;4.60;;
71878;SDS011;59755;43.834;4.364;2022-12-07T16:04:59;8.70;;;4.18;;
71878;SDS011;59755;43.834;4.364;2022-12-07T16:07:25;9.23;;;4.32;;
71878;SDS011;59755;43.834;4.364;2022-12-07T16:09:51;9.38;;;4.53;;
71878;SDS011;59755;43.834;4.364;2022-12-07T16:12:16;8.43;;;4.47;;
71878;SDS011;59755;43.834;4.364;2022-12-07T16:14:42;8.38;;;4.93;;
71878;SDS011;59755;43.834;4.364;2022-12-07T16:17:08;9.93;;;5.00;;
71878;SDS011;59755;43.834;4.364;2022-12-07T16:19:35;10.63;;;5.28;;
71878;SDS011;59755;43.834;4.364;2022-12-07T16:22:02;9.48;;;5.15;;
71878;SDS011;59755;43.834;4.364;2022-12-07T16:24:29;9.60;;;4.90;;
71878;SDS011;59755;43.834;4.364;2022-12-07T16:26:55;9.30;;;4.93;;
71878;SDS011;59755;43.834;4.364;2022-12-07T16:29:21;9.27;;;4.60;;
71878;SDS011;59755;43.834;4.364;2022-12-07T16:31:48;9.90;;;5.10;;
71878;SDS011;59755;43.834;4.364;2022-12-07T16:34:14;10.23;;;5.00;;
71878;SDS011;59755;43.834;4.364;2022-12-07T16:36:40;12.00;;;5.00;;
71878;SDS011;59755;43.834;4.364;2022-12-07T16:39:06;9.43;;;5.03;;
71878;SDS011;59755;43.834;4.364;2022-12-07T16:41:32;10.02;;;5.00;;
71878;SDS011;59755;43.834;4.364;2022-12-07T16:44:02;9.57;;;4.72;;
71878;SDS011;59755;43.834;4.364;2022-12-07T16:46:31;8.88;;;4.88;;
71878;SDS011;59755;43.834;4.364;2022-12-07T16:48:58;10.57;;;4.85;;
71878;SDS011;59755;43.834;4.364;2022-12-07T16:51:23;8.70;;;4.90;;
71878;SDS011;59755;43.834;4.364;2022-12-07T16:53:50;10.50;;;5.45;;
71878;SDS011;59755;43.834;4.364;2022-12-07T16:56:17;11.60;;;5.45;;
71878;SDS011;59755;43.834;4.364;2022-12-07T16:58:43;9.38;;;5.07;;
71878;SDS011;59755;43.834;4.364;2022-12-07T17:01:13;11.48;;;4.70;;
71878;SDS011;59755;43.834;4.364;2022-12-07T17:03:41;9.88;;;5.07;;
71878;SDS011;59755;43.834;4.364;2022-12-07T17:06:26;9.50;;;4.90;;
71878;SDS011;59755;43.834;4.364;2022-12-07T17:08:53;11.90;;;5.38;;
71878;SDS011;59755;43.834;4.364;2022-12-07T17:11:24;10.15;;;5.35;;